createdAt,value
2023-04-25T00:00:11.595Z,6.62
2023-04-25T00:01:11.602Z,6.64
2023-04-25T00:02:11.779Z,6.66
2023-04-25T00:03:11.662Z,6.66
2023-04-25T00:04:11.726Z,6.64
2023-04-25T00:05:11.615Z,6.64
2023-04-25T00:06:11.553Z,6.66
2023-04-25T00:07:11.535Z,6.64
2023-04-25T00:08:11.537Z,6.66
2023-04-25T00:09:11.527Z,6.66
2023-04-25T00:10:11.498Z,6.64
2023-04-25T00:11:11.482Z,6.64
2023-04-25T00:12:11.462Z,6.64
2023-04-25T00:13:11.466Z,6.66
2023-04-25T00:14:11.525Z,6.64
2023-04-25T00:15:11.463Z,6.63
2023-04-25T00:16:11.463Z,6.62
2023-04-25T00:17:11.407Z,6.62
2023-04-25T00:18:11.390Z,6.62
2023-04-25T00:19:11.385Z,6.62
2023-04-25T00:20:11.400Z,6.60
2023-04-25T00:21:11.431Z,6.60
2023-04-25T00:22:11.366Z,6.59
2023-04-25T00:23:11.367Z,6.60
2023-04-25T00:24:11.326Z,6.59
2023-04-25T00:25:11.373Z,6.59
2023-04-25T00:26:11.356Z,6.59
2023-04-25T00:27:11.327Z,6.57
2023-04-25T00:28:11.313Z,6.56
2023-04-25T00:29:11.271Z,6.56
2023-04-25T00:30:11.253Z,6.56
2023-04-25T00:31:11.325Z,6.57
2023-04-25T00:32:11.231Z,6.57
2023-04-25T00:33:11.341Z,6.52
2023-04-25T00:34:11.216Z,6.52
2023-04-25T00:35:11.217Z,6.52
2023-04-25T00:36:11.243Z,6.51
2023-04-25T00:37:11.185Z,6.52
2023-04-25T00:38:11.184Z,6.52
2023-04-25T00:39:11.205Z,6.54
2023-04-25T00:40:11.149Z,6.56
2023-04-25T00:41:11.142Z,6.56
2023-04-25T00:42:11.122Z,6.56
2023-04-25T00:43:11.118Z,6.56
2023-04-25T00:44:11.095Z,6.56
2023-04-25T00:45:11.155Z,6.56
2023-04-25T00:46:11.121Z,6.57
2023-04-25T00:47:11.079Z,6.56
2023-04-25T00:48:11.096Z,6.59
2023-04-25T00:49:11.161Z,6.59
2023-04-25T00:50:11.028Z,6.59
2023-04-25T00:51:11.041Z,6.59
2023-04-25T00:52:11.046Z,6.59
2023-04-25T00:53:11.030Z,6.56
2023-04-25T00:54:11.008Z,6.56
2023-04-25T00:55:11.004Z,6.59
2023-04-25T00:56:10.972Z,6.59
2023-04-25T00:57:10.994Z,6.57
2023-04-25T00:58:10.949Z,6.56
2023-04-25T00:59:11.042Z,6.56
2023-04-25T01:00:10.931Z,6.54
2023-04-25T01:01:10.919Z,6.54
2023-04-25T01:02:10.965Z,6.52
2023-04-25T01:03:11.121Z,6.52
2023-04-25T01:04:10.945Z,6.54
2023-04-25T01:05:10.878Z,6.52
2023-04-25T01:06:10.875Z,6.51
2023-04-25T01:07:10.859Z,6.48
2023-04-25T01:08:10.917Z,6.49
2023-04-25T01:09:10.821Z,6.51
2023-04-25T01:10:10.810Z,6.49
2023-04-25T01:11:10.792Z,6.49
2023-04-25T01:12:10.811Z,6.48
2023-04-25T01:13:10.799Z,6.48
2023-04-25T01:14:10.861Z,6.48
2023-04-25T01:15:10.803Z,6.46
2023-04-25T01:16:10.830Z,6.45
2023-04-25T01:17:10.764Z,6.42
2023-04-25T01:18:10.854Z,6.39
2023-04-25T01:19:10.744Z,6.38
2023-04-25T01:20:10.717Z,6.38
2023-04-25T01:21:10.736Z,6.38
2023-04-25T01:22:10.693Z,6.36
2023-04-25T01:23:10.676Z,6.35
2023-04-25T01:24:10.807Z,6.35
2023-04-25T01:25:10.654Z,6.33
2023-04-25T01:26:10.661Z,6.30
2023-04-25T01:27:10.617Z,6.30
2023-04-25T01:28:10.607Z,6.28
2023-04-25T01:29:10.612Z,6.31
2023-04-25T01:30:10.586Z,6.28
2023-04-25T01:31:10.584Z,6.31
2023-04-25T01:32:10.586Z,6.30
2023-04-25T01:33:10.576Z,6.31
2023-04-25T01:34:10.554Z,6.30
2023-04-25T01:35:10.623Z,6.28
2023-04-25T01:36:10.568Z,6.26
2023-04-25T01:37:10.515Z,6.26
2023-04-25T01:38:10.490Z,6.26
2023-04-25T01:39:10.508Z,6.24
2023-04-25T01:40:10.540Z,6.20
2023-04-25T01:41:10.502Z,6.20
2023-04-25T01:42:10.464Z,6.17
2023-04-25T01:43:10.466Z,6.17
2023-04-25T01:44:10.447Z,6.19
2023-04-25T01:45:10.428Z,6.20
2023-04-25T01:46:10.554Z,6.22
2023-04-25T01:47:10.391Z,6.19
2023-04-25T01:48:10.470Z,6.17
2023-04-25T01:49:10.375Z,6.20
2023-04-25T01:50:10.404Z,6.17
2023-04-25T01:51:10.436Z,6.17
2023-04-25T01:52:10.353Z,6.16
2023-04-25T01:53:10.330Z,6.17
2023-04-25T01:54:10.344Z,6.17
2023-04-25T01:55:10.330Z,6.19
2023-04-25T01:56:10.290Z,6.16
2023-04-25T01:57:10.299Z,6.17
2023-04-25T01:58:10.308Z,6.17
2023-04-25T01:59:10.270Z,6.17
2023-04-25T02:00:10.262Z,6.19
2023-04-25T02:01:10.307Z,6.17
2023-04-25T02:02:10.310Z,6.14
2023-04-25T02:03:10.331Z,6.12
2023-04-25T02:04:10.329Z,6.14
2023-04-25T02:05:10.181Z,6.14
2023-04-25T02:06:10.311Z,6.11
2023-04-25T02:07:10.225Z,6.11
2023-04-25T02:08:10.232Z,6.08
2023-04-25T02:09:10.178Z,6.09
2023-04-25T02:10:10.158Z,6.08
2023-04-25T02:11:10.148Z,6.08
2023-04-25T02:12:10.204Z,6.09
2023-04-25T02:13:10.111Z,6.08
2023-04-25T02:14:10.272Z,6.11
2023-04-25T02:15:10.110Z,6.11
2023-04-25T02:16:10.211Z,6.16
2023-04-25T02:17:10.213Z,6.14
2023-04-25T02:18:10.085Z,6.16
2023-04-25T02:19:10.065Z,6.12
2023-04-25T02:20:10.068Z,6.12
2023-04-25T02:21:10.040Z,6.16
2023-04-25T02:22:10.021Z,6.17
2023-04-25T02:23:10.046Z,6.20
2023-04-25T02:24:10.957Z,6.20
2023-04-25T02:25:09.983Z,6.19
2023-04-25T02:26:09.975Z,6.16
2023-04-25T02:27:09.985Z,6.14
2023-04-25T02:28:09.941Z,6.12
2023-04-25T02:29:09.925Z,6.16
2023-04-25T02:30:09.922Z,6.17
2023-04-25T02:31:09.972Z,6.17
2023-04-25T02:32:09.907Z,6.17
2023-04-25T02:33:09.932Z,6.17
2023-04-25T02:34:09.884Z,6.19
2023-04-25T02:35:09.969Z,6.19
2023-04-25T02:36:09.842Z,6.20
2023-04-25T02:37:09.842Z,6.22
2023-04-25T02:38:09.852Z,6.19
2023-04-25T02:39:09.820Z,6.19
2023-04-25T02:40:09.848Z,6.17
2023-04-25T02:41:09.816Z,6.17
2023-04-25T02:42:09.792Z,6.19
2023-04-25T02:43:09.779Z,6.19
2023-04-25T02:44:09.767Z,6.20
2023-04-25T02:45:09.779Z,6.19
2023-04-25T02:46:09.751Z,6.19
2023-04-25T02:47:09.761Z,6.20
2023-04-25T02:48:09.720Z,6.17
2023-04-25T02:49:09.707Z,6.19
2023-04-25T02:50:09.691Z,6.20
2023-04-25T02:51:09.724Z,6.19
2023-04-25T02:52:09.664Z,6.20
2023-04-25T02:53:09.683Z,6.20
2023-04-25T02:54:09.671Z,6.20
2023-04-25T02:55:09.736Z,6.17
2023-04-25T02:56:09.614Z,6.19
2023-04-25T02:57:09.619Z,6.19
2023-04-25T02:58:09.640Z,6.22
2023-04-25T02:59:09.662Z,6.22
2023-04-25T03:00:09.572Z,6.22
2023-04-25T03:01:09.600Z,6.22
2023-04-25T03:02:09.667Z,6.22
2023-04-25T03:03:09.651Z,6.19
2023-04-25T03:04:09.633Z,6.24
2023-04-25T03:05:09.520Z,6.24
2023-04-25T03:06:09.514Z,6.26
2023-04-25T03:07:09.495Z,6.24
2023-04-25T03:08:09.553Z,6.24
2023-04-25T03:09:09.465Z,6.24
2023-04-25T03:10:09.489Z,6.26
2023-04-25T03:11:09.444Z,6.27
2023-04-25T03:12:09.441Z,6.27
2023-04-25T03:13:09.459Z,6.28
2023-04-25T03:14:09.465Z,6.28
2023-04-25T03:15:09.424Z,6.30
2023-04-25T03:16:09.412Z,6.30
2023-04-25T03:17:09.406Z,6.30
2023-04-25T03:18:09.510Z,6.30
2023-04-25T03:19:09.360Z,6.30
2023-04-25T03:20:09.449Z,6.31
2023-04-25T03:21:09.344Z,6.31
2023-04-25T03:22:09.338Z,6.33
2023-04-25T03:23:09.307Z,6.35
2023-04-25T03:24:09.334Z,6.35
2023-04-25T03:25:09.319Z,6.36
2023-04-25T03:26:09.508Z,6.33
2023-04-25T03:27:09.297Z,6.30
2023-04-25T03:28:09.273Z,6.28
2023-04-25T03:29:09.264Z,6.28
2023-04-25T03:30:09.285Z,6.27
2023-04-25T03:31:09.387Z,6.27
2023-04-25T03:32:09.249Z,6.28
2023-04-25T03:33:09.234Z,6.27
2023-04-25T03:34:09.212Z,6.28
2023-04-25T03:35:09.187Z,6.28
2023-04-25T03:36:09.333Z,6.30
2023-04-25T03:37:09.183Z,6.28
2023-04-25T03:38:09.889Z,6.28
2023-04-25T03:39:09.143Z,6.28
2023-04-25T03:40:09.131Z,6.28
2023-04-25T03:41:09.167Z,6.27
2023-04-25T03:42:09.143Z,6.28
2023-04-25T03:43:09.132Z,6.27
2023-04-25T03:44:09.087Z,6.27
2023-04-25T03:45:09.063Z,6.28
2023-04-25T03:46:09.080Z,6.24
2023-04-25T03:47:09.045Z,6.22
2023-04-25T03:48:09.160Z,6.22
2023-04-25T03:49:09.056Z,6.24
2023-04-25T03:50:09.016Z,6.26
2023-04-25T03:51:08.993Z,6.20
2023-04-25T03:52:09.041Z,6.19
2023-04-25T03:53:08.992Z,6.16
2023-04-25T03:54:08.993Z,6.14
2023-04-25T03:55:08.972Z,6.12
2023-04-25T03:56:08.963Z,6.14
2023-04-25T03:57:08.947Z,6.14
2023-04-25T03:58:08.933Z,6.16
2023-04-25T03:59:08.947Z,6.16
2023-04-25T04:00:08.962Z,6.14
2023-04-25T04:01:09.039Z,6.17
2023-04-25T04:02:08.940Z,6.17
2023-04-25T04:03:09.000Z,6.19
2023-04-25T04:04:09.187Z,6.20
2023-04-25T04:05:08.954Z,6.20
2023-04-25T04:06:08.856Z,6.20
2023-04-25T04:07:08.802Z,6.24
2023-04-25T04:08:08.897Z,6.22
2023-04-25T04:09:08.849Z,6.24
2023-04-25T04:10:08.851Z,6.24
2023-04-25T04:11:08.793Z,6.22
2023-04-25T04:12:08.788Z,6.20
2023-04-25T04:13:08.776Z,6.19
2023-04-25T04:14:08.807Z,6.20
2023-04-25T04:15:08.885Z,6.20
2023-04-25T04:16:08.813Z,6.19
2023-04-25T04:17:08.758Z,6.20
2023-04-25T04:18:09.220Z,6.20
2023-04-25T04:19:08.693Z,6.20
2023-04-25T04:20:08.695Z,6.19
2023-04-25T04:21:08.660Z,6.17
2023-04-25T04:22:08.820Z,6.17
2023-04-25T04:23:08.738Z,6.17
2023-04-25T04:24:08.687Z,6.16
2023-04-25T04:25:08.661Z,6.14
2023-04-25T04:26:08.610Z,6.14
2023-04-25T04:27:08.610Z,6.16
2023-04-25T04:28:08.708Z,6.16
2023-04-25T04:29:08.640Z,6.17
2023-04-25T04:30:08.644Z,6.16
2023-04-25T04:31:08.664Z,6.16
2023-04-25T04:32:08.634Z,6.11
2023-04-25T04:33:08.650Z,6.11
2023-04-25T04:34:08.580Z,6.12
2023-04-25T04:35:08.517Z,6.14
2023-04-25T04:36:08.513Z,6.14
2023-04-25T04:37:08.945Z,6.14
2023-04-25T04:38:08.593Z,6.14
2023-04-25T04:39:08.491Z,6.16
2023-04-25T04:40:08.479Z,6.14
2023-04-25T04:41:08.514Z,6.17
2023-04-25T04:42:08.443Z,6.14
2023-04-25T04:43:08.493Z,6.14
2023-04-25T04:44:08.949Z,6.16
2023-04-25T04:45:08.396Z,6.17
2023-04-25T04:46:08.469Z,6.17
2023-04-25T04:47:08.357Z,6.20
2023-04-25T04:48:08.439Z,6.17
2023-04-25T04:49:08.362Z,6.19
2023-04-25T04:50:08.333Z,6.16
2023-04-25T04:51:08.322Z,6.16
2023-04-25T04:52:08.338Z,6.17
2023-04-25T04:53:08.344Z,6.16
2023-04-25T04:54:08.656Z,6.16
2023-04-25T04:55:08.280Z,6.16
2023-04-25T04:56:08.360Z,6.17
2023-04-25T04:57:08.281Z,6.16
2023-04-25T04:58:08.262Z,6.16
2023-04-25T04:59:08.247Z,6.16
2023-04-25T05:00:08.224Z,6.17
2023-04-25T05:01:08.256Z,6.20
2023-04-25T05:02:08.293Z,6.20
2023-04-25T05:03:08.355Z,6.19
2023-04-25T05:04:08.458Z,6.20
2023-04-25T05:05:08.206Z,6.19
2023-04-25T05:06:08.170Z,6.19
2023-04-25T05:07:08.531Z,6.17
2023-04-25T05:08:08.150Z,6.19
2023-04-25T05:09:08.149Z,6.19
2023-04-25T05:10:08.130Z,6.19
2023-04-25T05:11:08.092Z,6.19
2023-04-25T05:12:08.131Z,6.16
2023-04-25T05:13:08.085Z,6.16
2023-04-25T05:14:08.083Z,6.16
2023-04-25T05:15:08.151Z,6.17
2023-04-25T05:16:08.148Z,6.19
2023-04-25T05:17:08.059Z,6.22
2023-04-25T05:18:08.062Z,6.22
2023-04-25T05:19:08.063Z,6.26
2023-04-25T05:20:08.025Z,6.26
2023-04-25T05:21:07.985Z,6.24
2023-04-25T05:22:08.035Z,6.24
2023-04-25T05:23:07.963Z,6.26
2023-04-25T05:24:08.011Z,6.26
2023-04-25T05:25:07.988Z,6.26
2023-04-25T05:26:07.947Z,6.26
2023-04-25T05:27:07.953Z,6.26
2023-04-25T05:28:07.955Z,6.26
2023-04-25T05:29:07.918Z,6.27
2023-04-25T05:30:07.920Z,6.26
2023-04-25T05:31:07.863Z,6.26
2023-04-25T05:32:07.890Z,6.28
2023-04-25T05:33:08.007Z,6.28
2023-04-25T05:34:08.134Z,6.30
2023-04-25T05:35:07.982Z,6.30
2023-04-25T05:36:07.840Z,6.31
2023-04-25T05:37:07.819Z,6.33
2023-04-25T05:38:07.828Z,6.36
2023-04-25T05:39:07.767Z,6.36
2023-04-25T05:40:07.826Z,6.36
2023-04-25T05:41:07.842Z,6.36
2023-04-25T05:42:07.750Z,6.38
2023-04-25T05:43:07.727Z,6.35
2023-04-25T05:44:07.758Z,6.38
2023-04-25T05:45:07.733Z,6.39
2023-04-25T05:46:07.877Z,6.39
2023-04-25T05:47:07.773Z,6.44
2023-04-25T05:48:07.814Z,6.44
2023-04-25T05:49:07.683Z,6.44
2023-04-25T05:50:07.722Z,6.44
2023-04-25T05:51:07.642Z,6.48
2023-04-25T05:52:07.693Z,6.46
2023-04-25T05:53:07.707Z,6.44
2023-04-25T05:54:07.652Z,6.44
2023-04-25T05:55:07.591Z,6.45
2023-04-25T05:56:07.600Z,6.46
2023-04-25T05:57:07.631Z,6.48
2023-04-25T05:58:07.567Z,6.52
2023-04-25T05:59:07.628Z,6.54
2023-04-25T06:00:07.542Z,6.54
2023-04-25T06:01:07.568Z,6.56
2023-04-25T06:02:07.714Z,6.56
2023-04-25T06:03:07.723Z,6.52
2023-04-25T06:04:07.679Z,6.54
2023-04-25T06:05:07.788Z,6.56
2023-04-25T06:06:07.587Z,6.60
2023-04-25T06:07:07.453Z,6.63
2023-04-25T06:08:07.473Z,6.60
2023-04-25T06:09:07.462Z,6.57
2023-04-25T06:10:07.427Z,6.57
2023-04-25T06:11:07.446Z,6.54
2023-04-25T06:12:07.429Z,6.59
2023-04-25T06:13:07.434Z,6.64
2023-04-25T06:14:07.483Z,6.66
2023-04-25T06:15:20.231Z,6.66
2023-04-25T06:16:08.399Z,6.67
2023-04-25T06:17:07.407Z,6.66
2023-04-25T06:18:07.381Z,6.69
2023-04-25T06:19:07.327Z,6.64
2023-04-25T06:20:07.335Z,6.66
2023-04-25T06:21:07.316Z,6.67
2023-04-25T06:22:07.338Z,6.66
2023-04-25T06:23:07.290Z,6.66
2023-04-25T06:24:07.333Z,6.69
2023-04-25T06:25:07.249Z,6.72
2023-04-25T06:26:07.249Z,6.74
2023-04-25T06:27:07.314Z,6.75
2023-04-25T06:28:07.263Z,6.78
2023-04-25T06:29:07.214Z,6.84
2023-04-25T06:30:07.218Z,6.85
2023-04-25T06:31:07.188Z,6.84
2023-04-25T06:32:07.212Z,6.87
2023-04-25T06:33:07.245Z,6.88
2023-04-25T06:34:07.171Z,6.87
2023-04-25T06:35:07.181Z,6.92
2023-04-25T06:36:07.159Z,6.95
2023-04-25T06:37:07.115Z,6.96
2023-04-25T06:38:07.118Z,6.99
2023-04-25T06:39:07.129Z,6.97
2023-04-25T06:40:07.104Z,6.99
2023-04-25T06:41:07.083Z,6.99
2023-04-25T06:42:07.060Z,6.97
2023-04-25T06:43:07.075Z,6.99
2023-04-25T06:44:07.435Z,6.93
2023-04-25T06:45:07.053Z,6.92
2023-04-25T06:46:07.055Z,6.92
2023-04-25T06:47:07.120Z,6.87
2023-04-25T06:48:07.078Z,6.89
2023-04-25T06:49:07.019Z,6.95
2023-04-25T06:50:07.018Z,7.02
2023-04-25T06:51:06.955Z,7.07
2023-04-25T06:52:06.965Z,7.02
2023-04-25T06:53:06.968Z,7.05
2023-04-25T06:54:06.962Z,7.06
2023-04-25T06:55:06.945Z,7.02
2023-04-25T06:56:06.933Z,7.00
2023-04-25T06:57:06.888Z,7.00
2023-04-25T06:58:06.927Z,6.99
2023-04-25T06:59:06.904Z,7.02
2023-04-25T07:00:06.881Z,7.05
2023-04-25T07:01:06.880Z,7.05
2023-04-25T07:02:06.852Z,7.06
2023-04-25T07:03:07.010Z,7.05
2023-04-25T07:04:07.324Z,7.07
2023-04-25T07:05:06.831Z,7.07
2023-04-25T07:06:06.867Z,7.11
2023-04-25T07:07:06.800Z,7.11
2023-04-25T07:08:06.791Z,7.14
2023-04-25T07:09:06.783Z,7.13
2023-04-25T07:10:06.844Z,7.15
2023-04-25T07:11:06.752Z,7.20
2023-04-25T07:12:06.755Z,7.21
2023-04-25T07:13:06.723Z,7.21
2023-04-25T07:14:06.834Z,7.21
2023-04-25T07:15:06.757Z,7.23
2023-04-25T07:16:06.721Z,7.24
2023-04-25T07:17:06.703Z,7.29
2023-04-25T07:18:06.742Z,7.35
2023-04-25T07:19:06.700Z,7.35
2023-04-25T07:20:06.657Z,7.33
2023-04-25T07:21:06.654Z,7.36
2023-04-25T07:22:06.632Z,7.39
2023-04-25T07:23:06.624Z,7.39
2023-04-25T07:24:06.646Z,7.39
2023-04-25T07:25:06.606Z,7.39
2023-04-25T07:26:06.610Z,7.32
2023-04-25T07:27:06.573Z,7.32
2023-04-25T07:28:06.573Z,7.33
2023-04-25T07:29:06.549Z,7.35
2023-04-25T07:30:06.561Z,7.38
2023-04-25T07:31:06.564Z,7.38
2023-04-25T07:32:06.582Z,7.40
2023-04-25T07:33:06.534Z,7.42
2023-04-25T07:34:06.498Z,7.39
2023-04-25T07:35:06.533Z,7.38
2023-04-25T07:36:06.771Z,7.35
2023-04-25T07:37:06.476Z,7.40
2023-04-25T07:38:06.429Z,7.47
2023-04-25T07:39:06.437Z,7.54
2023-04-25T07:40:06.452Z,7.56
2023-04-25T07:41:06.443Z,7.61
2023-04-25T07:42:06.385Z,7.67
2023-04-25T07:43:06.382Z,7.73
2023-04-25T07:44:06.419Z,7.76
2023-04-25T07:45:06.386Z,7.76
2023-04-25T07:46:06.410Z,7.73
2023-04-25T07:47:06.361Z,7.79
2023-04-25T07:48:06.394Z,7.85
2023-04-25T07:49:06.324Z,7.82
2023-04-25T07:50:06.340Z,7.83
2023-04-25T07:51:06.308Z,7.90
2023-04-25T07:52:06.301Z,7.93
2023-04-25T07:53:06.374Z,7.94
2023-04-25T07:54:06.270Z,7.98
2023-04-25T07:55:06.259Z,7.98
2023-04-25T07:56:06.273Z,8.01
2023-04-25T07:57:06.263Z,7.87
2023-04-25T07:58:06.232Z,7.79
2023-04-25T07:59:06.241Z,7.77
2023-04-25T08:00:06.206Z,7.79
2023-04-25T08:01:06.209Z,7.83
2023-04-25T08:02:06.182Z,7.87
2023-04-25T08:03:06.336Z,7.90
2023-04-25T08:04:06.386Z,7.77
2023-04-25T08:05:06.428Z,7.75
2023-04-25T08:06:08.124Z,7.76
2023-04-25T08:07:06.125Z,7.79
2023-04-25T08:08:06.113Z,7.85
2023-04-25T08:09:06.093Z,7.94
2023-04-25T08:10:06.077Z,8.01
2023-04-25T08:11:06.114Z,7.95
2023-04-25T08:12:06.062Z,7.91
2023-04-25T08:13:06.394Z,7.90
2023-04-25T08:14:06.061Z,7.82
2023-04-25T08:15:06.039Z,7.80
2023-04-25T08:16:06.073Z,7.83
2023-04-25T08:17:06.010Z,7.91
2023-04-25T08:18:06.036Z,7.97
2023-04-25T08:19:06.005Z,8.10
2023-04-25T08:20:05.981Z,8.15
2023-04-25T08:21:05.954Z,8.10
2023-04-25T08:22:05.955Z,8.16
2023-04-25T08:23:05.934Z,8.20
2023-04-25T08:24:06.779Z,8.26
2023-04-25T08:25:05.922Z,8.26
2023-04-25T08:26:05.906Z,8.23
2023-04-25T08:27:05.898Z,8.23
2023-04-25T08:28:05.875Z,8.23
2023-04-25T08:29:05.941Z,8.13
2023-04-25T08:30:12.961Z,8.12
2023-04-25T08:31:05.907Z,8.13
2023-04-25T08:32:05.841Z,8.23
2023-04-25T08:33:05.897Z,8.38
2023-04-25T08:34:05.820Z,8.56
2023-04-25T08:35:05.815Z,8.64
2023-04-25T08:36:05.810Z,8.76
2023-04-25T08:37:05.867Z,8.87
2023-04-25T08:38:05.777Z,8.91
2023-04-25T08:39:05.776Z,8.87
2023-04-25T08:40:05.742Z,8.88
2023-04-25T08:41:05.776Z,8.85
2023-04-25T08:42:05.709Z,8.78
2023-04-25T08:43:05.720Z,8.71
2023-04-25T08:44:05.690Z,8.67
2023-04-25T08:45:12.788Z,8.58
2023-04-25T08:46:05.696Z,8.52
2023-04-25T08:47:05.758Z,8.38
2023-04-25T08:48:05.688Z,8.31
2023-04-25T08:49:05.645Z,8.23
2023-04-25T08:50:05.636Z,8.18
2023-04-25T08:51:05.651Z,8.10
2023-04-25T08:52:05.604Z,8.08
2023-04-25T08:53:06.019Z,8.05
2023-04-25T08:54:09.626Z,8.05
2023-04-25T08:55:06.560Z,8.06
2023-04-25T08:56:05.566Z,8.09
2023-04-25T08:57:05.773Z,8.12
2023-04-25T08:58:05.561Z,8.16
2023-04-25T08:59:05.554Z,8.19
2023-04-25T09:00:05.510Z,8.16
2023-04-25T09:01:05.562Z,8.13
2023-04-25T09:02:05.529Z,8.16
2023-04-25T09:03:05.714Z,8.16
2023-04-25T09:04:05.666Z,8.12
2023-04-25T09:05:05.473Z,8.15
2023-04-25T09:06:05.460Z,8.24
2023-04-25T09:07:05.466Z,8.23
2023-04-25T09:08:05.424Z,8.23
2023-04-25T09:09:05.855Z,8.27
2023-04-25T09:10:05.393Z,8.36
2023-04-25T09:11:05.391Z,8.41
2023-04-25T09:12:05.374Z,8.44
2023-04-25T09:13:05.372Z,8.48
2023-04-25T09:14:05.399Z,8.42
2023-04-25T09:15:05.440Z,8.38
2023-04-25T09:16:05.342Z,8.37
2023-04-25T09:17:05.962Z,8.37
2023-04-25T09:18:05.359Z,8.42
2023-04-25T09:19:05.298Z,8.52
2023-04-25T09:20:05.270Z,8.66
2023-04-25T09:21:12.602Z,8.66
2023-04-25T09:22:06.260Z,8.64
2023-04-25T09:23:05.265Z,8.58
2023-04-25T09:24:05.249Z,8.55
2023-04-25T09:25:05.233Z,8.51
2023-04-25T09:26:05.241Z,8.56
2023-04-25T09:27:05.205Z,8.70
2023-04-25T09:28:05.197Z,8.81
2023-04-25T09:29:05.198Z,8.84
2023-04-25T09:30:05.199Z,8.71
2023-04-25T09:31:05.182Z,8.66
2023-04-25T09:32:05.195Z,8.55
2023-04-25T09:33:05.175Z,8.53
2023-04-25T09:34:05.342Z,8.52
2023-04-25T09:35:05.103Z,8.52
2023-04-25T09:36:05.137Z,8.53
2023-04-25T09:37:05.093Z,8.55
2023-04-25T09:38:05.101Z,8.51
2023-04-25T09:39:05.078Z,8.45
2023-04-25T09:40:05.050Z,8.42
2023-04-25T09:41:05.073Z,8.44
2023-04-25T09:42:05.027Z,8.41
2023-04-25T09:43:05.043Z,8.45
2023-04-25T09:44:05.125Z,8.55
2023-04-25T09:45:05.022Z,8.70
2023-04-25T09:46:05.037Z,8.89
2023-04-25T09:47:05.058Z,9.10
2023-04-25T09:48:05.028Z,9.32
2023-04-25T09:49:04.967Z,9.43
2023-04-25T09:50:04.937Z,9.62
2023-04-25T09:51:04.943Z,9.74
2023-04-25T09:52:04.906Z,9.84
2023-04-25T09:53:04.929Z,9.80
2023-04-25T09:54:12.100Z,9.87
2023-04-25T09:55:04.891Z,9.89
2023-04-25T09:56:05.157Z,9.64
2023-04-25T09:57:04.875Z,9.34
2023-04-25T09:58:04.845Z,9.19
2023-04-25T09:59:04.852Z,9.02
2023-04-25T10:00:04.825Z,8.88
2023-04-25T10:01:04.855Z,8.81
2023-04-25T10:02:04.811Z,8.79
2023-04-25T10:03:04.955Z,8.82
2023-04-25T10:04:05.093Z,8.87
2023-04-25T10:05:04.873Z,8.88
2023-04-25T10:06:04.768Z,8.89
2023-04-25T10:07:04.767Z,8.94
2023-04-25T10:08:04.732Z,8.87
2023-04-25T10:09:04.794Z,8.82
2023-04-25T10:10:05.154Z,8.79
2023-04-25T10:11:04.714Z,8.81
2023-04-25T10:12:04.704Z,8.82
2023-04-25T10:13:04.693Z,8.81
2023-04-25T10:14:04.667Z,8.79
2023-04-25T10:15:04.685Z,8.76
2023-04-25T10:16:04.776Z,8.76
2023-04-25T10:17:04.651Z,8.73
2023-04-25T10:18:04.687Z,8.73
2023-04-25T10:19:04.611Z,8.73
2023-04-25T10:20:04.647Z,8.73
2023-04-25T10:21:04.627Z,8.73
2023-04-25T10:22:04.621Z,8.71
2023-04-25T10:23:04.589Z,8.58
2023-04-25T10:24:04.547Z,8.51
2023-04-25T10:25:04.584Z,8.48
2023-04-25T10:26:04.537Z,8.48
2023-04-25T10:27:04.523Z,8.49
2023-04-25T10:28:04.528Z,8.60
2023-04-25T10:29:04.496Z,8.74
2023-04-25T10:30:04.499Z,8.87
2023-04-25T10:31:04.573Z,9.00
2023-04-25T10:32:04.507Z,9.10
2023-04-25T10:33:04.485Z,9.18
2023-04-25T10:34:04.442Z,9.29
2023-04-25T10:35:04.444Z,9.37
2023-04-25T10:36:04.444Z,9.41
2023-04-25T10:37:04.451Z,9.44
2023-04-25T10:38:04.407Z,9.43
2023-04-25T10:39:18.226Z,9.44
2023-04-25T10:40:04.396Z,9.48
2023-04-25T10:41:04.385Z,9.46
2023-04-25T10:42:04.732Z,9.54
2023-04-25T10:43:04.469Z,9.76
2023-04-25T10:44:04.357Z,10.10
2023-04-25T10:45:04.363Z,10.17
2023-04-25T10:46:04.460Z,10.13
2023-04-25T10:47:04.593Z,9.97
2023-04-25T10:48:04.450Z,10.04
2023-04-25T10:49:04.385Z,10.16
2023-04-25T10:50:04.360Z,10.28
2023-04-25T10:51:04.399Z,10.35
2023-04-25T10:52:04.404Z,10.16
2023-04-25T10:53:04.578Z,10.05
2023-04-25T10:54:04.385Z,10.07
2023-04-25T10:55:04.361Z,10.04
2023-04-25T10:56:04.437Z,9.91
2023-04-25T10:57:04.445Z,10.04
2023-04-25T10:58:04.365Z,10.15
2023-04-25T10:59:04.245Z,10.17
2023-04-25T11:00:04.330Z,10.25
2023-04-25T11:01:04.237Z,10.23
2023-04-25T11:02:04.315Z,10.26
2023-04-25T11:03:04.359Z,10.10
2023-04-25T11:04:04.341Z,9.98
2023-04-25T11:05:04.120Z,9.82
2023-04-25T11:06:04.171Z,9.72
2023-04-25T11:07:06.915Z,9.66
2023-04-25T11:09:05.358Z,9.64
2023-04-25T11:10:04.077Z,9.61
2023-04-25T11:11:04.046Z,9.64
2023-04-25T11:12:04.059Z,9.72
2023-04-25T11:13:04.039Z,9.79
2023-04-25T11:14:04.037Z,9.82
2023-04-25T11:15:04.035Z,10.02
2023-04-25T11:16:13.187Z,10.15
2023-04-25T11:17:05.014Z,10.25
2023-04-25T11:18:03.994Z,10.34
2023-04-25T11:19:03.968Z,10.30
2023-04-25T11:20:03.971Z,10.20
2023-04-25T11:21:03.955Z,10.04
2023-04-25T11:22:04.704Z,9.87
2023-04-25T11:24:03.931Z,9.80
2023-04-25T11:25:03.861Z,9.82
2023-04-25T11:26:03.876Z,9.79
2023-04-25T11:27:03.854Z,9.66
2023-04-25T11:28:03.882Z,9.64
2023-04-25T11:29:03.865Z,9.59
2023-04-25T11:30:03.839Z,9.48
2023-04-25T11:31:03.799Z,9.40
2023-04-25T11:32:03.880Z,9.36
2023-04-25T11:33:03.896Z,9.29
2023-04-25T11:34:03.771Z,9.25
2023-04-25T11:35:03.874Z,9.10
2023-04-25T11:36:03.771Z,8.94
2023-04-25T11:37:03.740Z,8.82
2023-04-25T11:38:03.756Z,8.76
2023-04-25T11:39:03.726Z,8.74
2023-04-25T11:40:03.748Z,8.71
2023-04-25T11:41:03.683Z,8.69
2023-04-25T11:42:06.319Z,8.66
2023-04-25T11:43:03.669Z,8.60
2023-04-25T11:44:03.674Z,8.60
2023-04-25T11:45:03.665Z,8.53
2023-04-25T11:46:03.701Z,8.60
2023-04-25T11:47:03.618Z,8.60
2023-04-25T11:48:03.659Z,8.63
2023-04-25T11:49:03.601Z,8.56
2023-04-25T11:50:03.623Z,8.61
2023-04-25T11:51:03.573Z,8.66
2023-04-25T11:52:03.583Z,8.64
2023-04-25T11:53:03.585Z,8.64
2023-04-25T11:54:03.675Z,8.64
2023-04-25T11:55:03.624Z,8.73
2023-04-25T11:56:03.545Z,8.82
2023-04-25T11:57:03.524Z,8.87
2023-04-25T11:58:03.560Z,8.92
2023-04-25T11:59:03.572Z,8.92
2023-04-25T12:00:03.509Z,8.95
2023-04-25T12:01:03.463Z,8.97
2023-04-25T12:02:03.470Z,8.97
2023-04-25T12:03:03.569Z,9.03
2023-04-25T12:04:03.586Z,9.11
2023-04-25T12:05:16.013Z,9.14
2023-04-25T12:06:04.892Z,9.13
2023-04-25T12:07:03.668Z,9.14
2023-04-25T12:08:03.412Z,9.16
2023-04-25T12:09:03.397Z,9.22
2023-04-25T12:10:03.400Z,9.23
2023-04-25T12:11:03.513Z,9.14
2023-04-25T12:12:03.370Z,9.10
2023-04-25T12:13:03.571Z,9.10
2023-04-25T12:14:03.314Z,9.08
2023-04-25T12:15:03.302Z,9.13
2023-04-25T12:16:03.396Z,9.18
2023-04-25T12:17:03.380Z,9.22
2023-04-25T12:18:03.322Z,9.26
2023-04-25T12:19:03.407Z,9.36
2023-04-25T12:20:03.309Z,9.37
2023-04-25T12:21:03.248Z,9.37
2023-04-25T12:22:03.250Z,9.39
2023-04-25T12:23:03.263Z,9.40
2023-04-25T12:24:03.213Z,9.39
2023-04-25T12:25:03.179Z,9.36
2023-04-25T12:26:03.191Z,9.37
2023-04-25T12:27:03.273Z,9.39
2023-04-25T12:28:03.190Z,9.50
2023-04-25T12:29:03.170Z,9.68
2023-04-25T12:30:03.176Z,9.84
2023-04-25T12:31:03.215Z,9.99
2023-04-25T12:32:03.282Z,10.05
2023-04-25T12:33:03.227Z,10.10
2023-04-25T12:34:03.106Z,10.10
2023-04-25T12:35:03.103Z,10.12
2023-04-25T12:36:04.444Z,10.13
2023-04-25T12:37:03.080Z,10.17
2023-04-25T12:38:03.087Z,10.31
2023-04-25T12:39:03.033Z,10.25
2023-04-25T12:40:03.064Z,10.19
2023-04-25T12:41:03.019Z,10.26
2023-04-25T12:42:03.026Z,10.40
2023-04-25T12:43:03.047Z,10.28
2023-04-25T12:44:03.115Z,10.16
2023-04-25T12:45:02.983Z,9.98
2023-04-25T12:46:02.976Z,9.92
2023-04-25T12:47:03.021Z,9.80
2023-04-25T12:48:04.276Z,9.72
2023-04-25T12:49:17.290Z,9.74
2023-04-25T12:50:03.970Z,9.74
2023-04-25T12:51:03.529Z,9.77
2023-04-25T12:52:02.975Z,9.68
2023-04-25T12:53:02.883Z,9.74
2023-04-25T12:54:02.890Z,9.89
2023-04-25T12:55:02.908Z,9.98
2023-04-25T12:56:02.897Z,10.04
2023-04-25T12:57:02.855Z,10.22
2023-04-25T12:58:02.864Z,10.48
2023-04-25T12:59:02.846Z,10.69
2023-04-25T13:00:02.854Z,11.00
2023-04-25T13:01:02.928Z,11.32
2023-04-25T13:02:02.827Z,11.33
2023-04-25T13:03:02.933Z,11.51
2023-04-25T13:04:02.926Z,11.48
2023-04-25T13:05:02.768Z,11.29
2023-04-25T13:06:02.745Z,11.29
2023-04-25T13:07:02.728Z,11.12
2023-04-25T13:08:02.725Z,11.14
2023-04-25T13:09:02.771Z,11.26
2023-04-25T13:10:02.826Z,10.99
2023-04-25T13:11:03.552Z,10.99
2023-04-25T13:12:02.695Z,11.00
2023-04-25T13:13:02.649Z,10.93
2023-04-25T13:14:02.672Z,11.08
2023-04-25T13:15:02.642Z,11.32
2023-04-25T13:16:02.700Z,11.40
2023-04-25T13:17:02.680Z,11.44
2023-04-25T13:18:02.740Z,11.40